sensor_id;sensor_type;location;lat;lon;timestamp;temperature;humidity
61398;DHT22;47267;48.130;-2.040;2023-02-28T00:02:18;18.40;40.60
61398;DHT22;47267;48.130;-2.040;2023-02-28T00:04:44;18.50;40.60
61398;DHT22;47267;48.130;-2.040;2023-02-28T00:07:09;18.50;40.60
61398;DHT22;47267;48.130;-2.040;2023-02-28T00:09:35;18.50;40.50
61398;DHT22;47267;48.130;-2.040;2023-02-28T00:12:01;18.40;40.40
61398;DHT22;47267;48.130;-2.040;2023-02-28T00:14:36;18.40;41.10
61398;DHT22;47267;48.130;-2.040;2023-02-28T00:17:02;18.40;40.40
61398;DHT22;47267;48.130;-2.040;2023-02-28T00:19:27;18.40;40.40
61398;DHT22;47267;48.130;-2.040;2023-02-28T00:21:53;18.30;40.20
61398;DHT22;47267;48.130;-2.040;2023-02-28T00:24:19;18.40;40.30
61398;DHT22;47267;48.130;-2.040;2023-02-28T00:26:44;18.30;40.20
61398;DHT22;47267;48.130;-2.040;2023-02-28T00:29:10;18.30;40.30
61398;DHT22;47267;48.130;-2.040;2023-02-28T00:31:36;18.30;40.20
61398;DHT22;47267;48.130;-2.040;2023-02-28T00:34:01;18.30;40.20
61398;DHT22;47267;48.130;-2.040;2023-02-28T00:36:27;18.30;40.20
61398;DHT22;47267;48.130;-2.040;2023-02-28T00:38:53;18.30;40.10
61398;DHT22;47267;48.130;-2.040;2023-02-28T00:41:18;18.30;40.20
61398;DHT22;47267;48.130;-2.040;2023-02-28T00:43:44;18.20;40.10
61398;DHT22;47267;48.130;-2.040;2023-02-28T00:46:10;18.30;40.20
61398;DHT22;47267;48.130;-2.040;2023-02-28T00:48:36;18.20;40.10
61398;DHT22;47267;48.130;-2.040;2023-02-28T00:51:01;18.20;40.10
61398;DHT22;47267;48.130;-2.040;2023-02-28T00:53:28;18.20;40.10
61398;DHT22;47267;48.130;-2.040;2023-02-28T00:55:54;18.20;40.10
61398;DHT22;47267;48.130;-2.040;2023-02-28T00:58:19;18.20;40.10
61398;DHT22;47267;48.130;-2.040;2023-02-28T01:00:45;18.20;40.00
61398;DHT22;47267;48.130;-2.040;2023-02-28T01:03:15;18.20;40.10
61398;DHT22;47267;48.130;-2.040;2023-02-28T01:05:41;18.20;40.10
61398;DHT22;47267;48.130;-2.040;2023-02-28T01:08:07;18.20;40.10
61398;DHT22;47267;48.130;-2.040;2023-02-28T01:10:33;18.10;40.20
61398;DHT22;47267;48.130;-2.040;2023-02-28T01:12:59;18.10;40.10
61398;DHT22;47267;48.130;-2.040;2023-02-28T01:15:24;18.10;40.20
61398;DHT22;47267;48.130;-2.040;2023-02-28T01:17:50;18.10;40.20
61398;DHT22;47267;48.130;-2.040;2023-02-28T01:20:16;18.10;40.10
61398;DHT22;47267;48.130;-2.040;2023-02-28T01:22:42;18.10;40.10
61398;DHT22;47267;48.130;-2.040;2023-02-28T01:25:08;18.10;40.10
61398;DHT22;47267;48.130;-2.040;2023-02-28T01:27:34;18.10;40.20
61398;DHT22;47267;48.130;-2.040;2023-02-28T01:29:59;18.10;40.20
61398;DHT22;47267;48.130;-2.040;2023-02-28T01:32:25;18.00;40.10
61398;DHT22;47267;48.130;-2.040;2023-02-28T01:34:51;18.00;40.10
61398;DHT22;47267;48.130;-2.040;2023-02-28T01:37:16;18.00;40.10
61398;DHT22;47267;48.130;-2.040;2023-02-28T01:39:42;18.10;40.10
61398;DHT22;47267;48.130;-2.040;2023-02-28T01:42:09;18.00;40.10
61398;DHT22;47267;48.130;-2.040;2023-02-28T01:47:19;18.00;40.10
61398;DHT22;47267;48.130;-2.040;2023-02-28T01:49:46;18.00;40.10
61398;DHT22;47267;48.130;-2.040;2023-02-28T01:52:14;18.00;40.10
61398;DHT22;47267;48.130;-2.040;2023-02-28T01:54:47;18.00;40.10
61398;DHT22;47267;48.130;-2.040;2023-02-28T01:57:18;18.00;40.00
61398;DHT22;47267;48.130;-2.040;2023-02-28T01:59:50;17.90;40.00
61398;DHT22;47267;48.130;-2.040;2023-02-28T02:02:19;18.00;40.00
61398;DHT22;47267;48.130;-2.040;2023-02-28T02:05:00;17.90;40.00
61398;DHT22;47267;48.130;-2.040;2023-02-28T02:07:30;17.90;39.90
61398;DHT22;47267;48.130;-2.040;2023-02-28T02:10:09;17.90;39.90
61398;DHT22;47267;48.130;-2.040;2023-02-28T02:17:56;17.90;40.00
61398;DHT22;47267;48.130;-2.040;2023-02-28T02:20:38;17.90;40.60
61398;DHT22;47267;48.130;-2.040;2023-02-28T02:23:52;17.90;40.00
61398;DHT22;47267;48.130;-2.040;2023-02-28T02:37:12;17.80;39.80
61398;DHT22;47267;48.130;-2.040;2023-02-28T02:39:51;17.80;39.80
61398;DHT22;47267;48.130;-2.040;2023-02-28T02:42:27;17.80;39.80
61398;DHT22;47267;48.130;-2.040;2023-02-28T02:45:00;17.80;39.80
61398;DHT22;47267;48.130;-2.040;2023-02-28T02:47:29;17.80;39.90
61398;DHT22;47267;48.130;-2.040;2023-02-28T02:49:59;17.80;39.90
61398;DHT22;47267;48.130;-2.040;2023-02-28T02:52:39;17.80;39.80
61398;DHT22;47267;48.130;-2.040;2023-02-28T02:55:07;17.80;39.90
61398;DHT22;47267;48.130;-2.040;2023-02-28T02:57:59;17.80;39.80
61398;DHT22;47267;48.130;-2.040;2023-02-28T03:00:40;17.80;39.90
61398;DHT22;47267;48.130;-2.040;2023-02-28T03:03:09;17.80;39.90
61398;DHT22;47267;48.130;-2.040;2023-02-28T03:05:42;17.80;39.90
61398;DHT22;47267;48.130;-2.040;2023-02-28T03:08:10;17.80;39.80
61398;DHT22;47267;48.130;-2.040;2023-02-28T03:10:37;17.80;39.80
61398;DHT22;47267;48.130;-2.040;2023-02-28T03:13:19;17.70;39.80
61398;DHT22;47267;48.130;-2.040;2023-02-28T03:21:50;17.70;39.80
61398;DHT22;47267;48.130;-2.040;2023-02-28T03:26:55;17.80;39.80
61398;DHT22;47267;48.130;-2.040;2023-02-28T03:29:35;17.70;39.80
61398;DHT22;47267;48.130;-2.040;2023-02-28T03:32:11;17.70;39.70
61398;DHT22;47267;48.130;-2.040;2023-02-28T03:34:49;17.70;39.70
61398;DHT22;47267;48.130;-2.040;2023-02-28T03:37:20;17.70;39.80
61398;DHT22;47267;48.130;-2.040;2023-02-28T03:39:51;17.70;39.80
61398;DHT22;47267;48.130;-2.040;2023-02-28T03:42:22;17.70;39.70
61398;DHT22;47267;48.130;-2.040;2023-02-28T03:45:02;17.70;39.70
61398;DHT22;47267;48.130;-2.040;2023-02-28T03:47:49;17.70;39.70
61398;DHT22;47267;48.130;-2.040;2023-02-28T03:50:35;17.70;39.70
61398;DHT22;47267;48.130;-2.040;2023-02-28T03:55:49;17.70;39.80
61398;DHT22;47267;48.130;-2.040;2023-02-28T04:01:18;17.60;39.70
61398;DHT22;47267;48.130;-2.040;2023-02-28T04:03:45;17.60;39.70
61398;DHT22;47267;48.130;-2.040;2023-02-28T04:06:20;17.60;39.70
61398;DHT22;47267;48.130;-2.040;2023-02-28T04:08:47;17.60;39.70
61398;DHT22;47267;48.130;-2.040;2023-02-28T04:11:27;17.60;39.60
61398;DHT22;47267;48.130;-2.040;2023-02-28T04:13:55;17.60;39.70
61398;DHT22;47267;48.130;-2.040;2023-02-28T04:16:21;17.60;39.70
61398;DHT22;47267;48.130;-2.040;2023-02-28T04:18:46;17.60;39.60
61398;DHT22;47267;48.130;-2.040;2023-02-28T04:21:13;17.60;39.60
61398;DHT22;47267;48.130;-2.040;2023-02-28T04:23:38;17.60;39.70
61398;DHT22;47267;48.130;-2.040;2023-02-28T04:26:05;17.60;39.60
61398;DHT22;47267;48.130;-2.040;2023-02-28T04:28:32;17.60;39.60
61398;DHT22;47267;48.130;-2.040;2023-02-28T04:31:02;17.60;39.60
61398;DHT22;47267;48.130;-2.040;2023-02-28T04:33:30;17.60;39.60
61398;DHT22;47267;48.130;-2.040;2023-02-28T04:36:05;17.60;39.60
61398;DHT22;47267;48.130;-2.040;2023-02-28T04:38:36;17.60;39.60
61398;DHT22;47267;48.130;-2.040;2023-02-28T04:41:02;17.60;39.60
61398;DHT22;47267;48.130;-2.040;2023-02-28T04:43:29;17.60;39.70
61398;DHT22;47267;48.130;-2.040;2023-02-28T04:45:55;17.60;39.60
61398;DHT22;47267;48.130;-2.040;2023-02-28T04:48:25;17.60;39.60
61398;DHT22;47267;48.130;-2.040;2023-02-28T04:50:52;17.60;39.60
61398;DHT22;47267;48.130;-2.040;2023-02-28T04:53:18;17.60;39.60
61398;DHT22;47267;48.130;-2.040;2023-02-28T04:55:44;17.50;39.50
61398;DHT22;47267;48.130;-2.040;2023-02-28T04:58:10;17.50;39.60
61398;DHT22;47267;48.130;-2.040;2023-02-28T05:00:36;17.60;39.60
61398;DHT22;47267;48.130;-2.040;2023-02-28T05:03:01;17.50;39.60
61398;DHT22;47267;48.130;-2.040;2023-02-28T05:05:27;17.50;39.50
61398;DHT22;47267;48.130;-2.040;2023-02-28T05:07:53;17.50;39.50
61398;DHT22;47267;48.130;-2.040;2023-02-28T05:10:21;17.50;39.50
61398;DHT22;47267;48.130;-2.040;2023-02-28T05:12:47;17.50;39.50
61398;DHT22;47267;48.130;-2.040;2023-02-28T05:15:15;17.50;39.50
61398;DHT22;47267;48.130;-2.040;2023-02-28T05:17:40;17.50;39.40
61398;DHT22;47267;48.130;-2.040;2023-02-28T05:20:07;17.50;39.50
61398;DHT22;47267;48.130;-2.040;2023-02-28T05:22:36;17.50;39.50
61398;DHT22;47267;48.130;-2.040;2023-02-28T05:25:04;17.50;39.40
61398;DHT22;47267;48.130;-2.040;2023-02-28T05:27:31;17.50;39.50
61398;DHT22;47267;48.130;-2.040;2023-02-28T05:29:56;17.50;39.40
61398;DHT22;47267;48.130;-2.040;2023-02-28T05:32:22;17.50;39.40
61398;DHT22;47267;48.130;-2.040;2023-02-28T05:34:48;17.50;39.40
61398;DHT22;47267;48.130;-2.040;2023-02-28T05:37:14;17.50;39.40
61398;DHT22;47267;48.130;-2.040;2023-02-28T05:39:41;17.50;39.40
61398;DHT22;47267;48.130;-2.040;2023-02-28T05:42:07;17.40;39.40
61398;DHT22;47267;48.130;-2.040;2023-02-28T05:44:35;17.50;39.40
61398;DHT22;47267;48.130;-2.040;2023-02-28T05:47:01;17.50;39.40
61398;DHT22;47267;48.130;-2.040;2023-02-28T05:49:26;17.40;39.40
61398;DHT22;47267;48.130;-2.040;2023-02-28T05:51:52;17.40;39.30
61398;DHT22;47267;48.130;-2.040;2023-02-28T05:54:18;17.40;39.30
61398;DHT22;47267;48.130;-2.040;2023-02-28T05:56:43;17.40;39.30
61398;DHT22;47267;48.130;-2.040;2023-02-28T05:59:14;17.40;39.30
61398;DHT22;47267;48.130;-2.040;2023-02-28T06:01:44;17.40;39.30
61398;DHT22;47267;48.130;-2.040;2023-02-28T06:04:15;17.40;39.30
61398;DHT22;47267;48.130;-2.040;2023-02-28T06:06:47;17.40;39.30
61398;DHT22;47267;48.130;-2.040;2023-02-28T06:09:13;17.40;39.30
61398;DHT22;47267;48.130;-2.040;2023-02-28T06:11:39;17.30;39.20
61398;DHT22;47267;48.130;-2.040;2023-02-28T06:14:05;17.40;39.30
61398;DHT22;47267;48.130;-2.040;2023-02-28T06:16:32;17.30;39.30
61398;DHT22;47267;48.130;-2.040;2023-02-28T06:19:01;17.30;39.30
61398;DHT22;47267;48.130;-2.040;2023-02-28T06:21:28;17.40;39.30
61398;DHT22;47267;48.130;-2.040;2023-02-28T06:23:55;17.40;39.30
61398;DHT22;47267;48.130;-2.040;2023-02-28T06:26:21;17.30;39.30
61398;DHT22;47267;48.130;-2.040;2023-02-28T06:28:47;17.30;39.30
61398;DHT22;47267;48.130;-2.040;2023-02-28T06:31:15;17.30;39.30
61398;DHT22;47267;48.130;-2.040;2023-02-28T06:33:42;17.30;39.30
61398;DHT22;47267;48.130;-2.040;2023-02-28T06:36:10;17.30;39.30
61398;DHT22;47267;48.130;-2.040;2023-02-28T06:38:36;17.30;39.30
61398;DHT22;47267;48.130;-2.040;2023-02-28T06:41:03;17.30;39.30
61398;DHT22;47267;48.130;-2.040;2023-02-28T06:43:30;17.30;39.30
61398;DHT22;47267;48.130;-2.040;2023-02-28T06:45:57;17.30;39.30
61398;DHT22;47267;48.130;-2.040;2023-02-28T06:48:25;17.30;39.30
61398;DHT22;47267;48.130;-2.040;2023-02-28T06:50:51;17.30;39.40
61398;DHT22;47267;48.130;-2.040;2023-02-28T06:53:17;17.30;39.50
61398;DHT22;47267;48.130;-2.040;2023-02-28T06:55:42;17.30;39.60
61398;DHT22;47267;48.130;-2.040;2023-02-28T06:58:08;17.30;39.70
61398;DHT22;47267;48.130;-2.040;2023-02-28T07:00:44;17.30;39.80
61398;DHT22;47267;48.130;-2.040;2023-02-28T07:03:11;17.30;39.90
61398;DHT22;47267;48.130;-2.040;2023-02-28T07:05:38;17.30;40.00
61398;DHT22;47267;48.130;-2.040;2023-02-28T07:08:05;17.30;40.00
61398;DHT22;47267;48.130;-2.040;2023-02-28T07:10:32;17.30;40.00
61398;DHT22;47267;48.130;-2.040;2023-02-28T07:12:58;17.30;40.10
61398;DHT22;47267;48.130;-2.040;2023-02-28T07:15:24;17.30;40.20
61398;DHT22;47267;48.130;-2.040;2023-02-28T07:17:50;17.30;40.20
61398;DHT22;47267;48.130;-2.040;2023-02-28T07:20:16;17.30;40.30
61398;DHT22;47267;48.130;-2.040;2023-02-28T07:22:42;17.30;40.30
61398;DHT22;47267;48.130;-2.040;2023-02-28T07:25:08;17.30;40.30
61398;DHT22;47267;48.130;-2.040;2023-02-28T07:27:34;17.30;40.30
61398;DHT22;47267;48.130;-2.040;2023-02-28T07:30:00;17.30;40.30
61398;DHT22;47267;48.130;-2.040;2023-02-28T07:32:29;17.30;40.40
61398;DHT22;47267;48.130;-2.040;2023-02-28T07:34:55;17.30;40.40
61398;DHT22;47267;48.130;-2.040;2023-02-28T07:37:21;17.30;40.40
61398;DHT22;47267;48.130;-2.040;2023-02-28T07:39:47;17.30;40.40
61398;DHT22;47267;48.130;-2.040;2023-02-28T07:42:13;17.30;40.50
61398;DHT22;47267;48.130;-2.040;2023-02-28T07:44:39;17.30;40.40
61398;DHT22;47267;48.130;-2.040;2023-02-28T07:47:12;17.30;40.50
61398;DHT22;47267;48.130;-2.040;2023-02-28T07:49:37;17.40;40.50
61398;DHT22;47267;48.130;-2.040;2023-02-28T07:52:06;17.30;40.50
61398;DHT22;47267;48.130;-2.040;2023-02-28T07:54:33;17.30;40.50
61398;DHT22;47267;48.130;-2.040;2023-02-28T07:56:58;17.30;40.50
61398;DHT22;47267;48.130;-2.040;2023-02-28T07:59:24;17.40;40.60
61398;DHT22;47267;48.130;-2.040;2023-02-28T08:01:50;17.40;40.60
61398;DHT22;47267;48.130;-2.040;2023-02-28T08:04:17;17.40;40.60
61398;DHT22;47267;48.130;-2.040;2023-02-28T08:06:43;17.40;40.70
61398;DHT22;47267;48.130;-2.040;2023-02-28T08:09:09;17.40;40.70
61398;DHT22;47267;48.130;-2.040;2023-02-28T08:11:34;17.40;40.70
61398;DHT22;47267;48.130;-2.040;2023-02-28T08:14:01;17.50;40.80
61398;DHT22;47267;48.130;-2.040;2023-02-28T08:16:27;17.40;40.70
61398;DHT22;47267;48.130;-2.040;2023-02-28T08:18:53;17.40;40.90
61398;DHT22;47267;48.130;-2.040;2023-02-28T08:21:20;17.50;40.90
61398;DHT22;47267;48.130;-2.040;2023-02-28T08:23:47;17.50;40.90
61398;DHT22;47267;48.130;-2.040;2023-02-28T08:26:14;17.50;41.00
61398;DHT22;47267;48.130;-2.040;2023-02-28T08:28:40;17.50;41.00
61398;DHT22;47267;48.130;-2.040;2023-02-28T08:31:10;17.50;41.10
61398;DHT22;47267;48.130;-2.040;2023-02-28T08:33:37;17.50;41.10
61398;DHT22;47267;48.130;-2.040;2023-02-28T08:36:04;17.50;41.10
61398;DHT22;47267;48.130;-2.040;2023-02-28T08:38:31;17.50;41.10
61398;DHT22;47267;48.130;-2.040;2023-02-28T08:41:06;17.50;41.20
61398;DHT22;47267;48.130;-2.040;2023-02-28T08:43:33;17.50;41.20
61398;DHT22;47267;48.130;-2.040;2023-02-28T08:45:59;17.50;41.20
61398;DHT22;47267;48.130;-2.040;2023-02-28T08:48:29;17.60;41.20
61398;DHT22;47267;48.130;-2.040;2023-02-28T08:51:16;17.50;41.20
61398;DHT22;47267;48.130;-2.040;2023-02-28T08:53:44;17.60;41.30
61398;DHT22;47267;48.130;-2.040;2023-02-28T08:56:13;17.60;41.30
61398;DHT22;47267;48.130;-2.040;2023-02-28T08:58:39;17.60;41.30
61398;DHT22;47267;48.130;-2.040;2023-02-28T09:01:13;17.60;41.30
61398;DHT22;47267;48.130;-2.040;2023-02-28T09:03:40;17.60;41.40
61398;DHT22;47267;48.130;-2.040;2023-02-28T09:06:07;17.60;41.40
61398;DHT22;47267;48.130;-2.040;2023-02-28T09:08:33;17.60;41.40
61398;DHT22;47267;48.130;-2.040;2023-02-28T09:10:59;17.60;41.40
61398;DHT22;47267;48.130;-2.040;2023-02-28T09:13:25;17.60;41.50
61398;DHT22;47267;48.130;-2.040;2023-02-28T09:15:52;17.60;41.50
61398;DHT22;47267;48.130;-2.040;2023-02-28T09:18:18;17.60;41.50
61398;DHT22;47267;48.130;-2.040;2023-02-28T09:20:44;17.60;42.20
61398;DHT22;47267;48.130;-2.040;2023-02-28T09:23:11;17.60;41.60
61398;DHT22;47267;48.130;-2.040;2023-02-28T09:25:38;17.60;42.30
61398;DHT22;47267;48.130;-2.040;2023-02-28T09:28:10;17.60;41.70
61398;DHT22;47267;48.130;-2.040;2023-02-28T09:30:36;17.60;41.80
61398;DHT22;47267;48.130;-2.040;2023-02-28T09:33:02;17.60;41.80
61398;DHT22;47267;48.130;-2.040;2023-02-28T09:35:28;17.60;41.80
61398;DHT22;47267;48.130;-2.040;2023-02-28T09:37:56;17.60;41.90
61398;DHT22;47267;48.130;-2.040;2023-02-28T09:40:24;17.60;42.00
61398;DHT22;47267;48.130;-2.040;2023-02-28T09:42:53;17.60;42.00
61398;DHT22;47267;48.130;-2.040;2023-02-28T09:45:51;17.60;42.10
61398;DHT22;47267;48.130;-2.040;2023-02-28T09:48:25;17.60;42.10
61398;DHT22;47267;48.130;-2.040;2023-02-28T09:51:00;17.60;42.20
61398;DHT22;47267;48.130;-2.040;2023-02-28T09:53:33;17.60;42.20
61398;DHT22;47267;48.130;-2.040;2023-02-28T09:56:07;17.60;42.30
61398;DHT22;47267;48.130;-2.040;2023-02-28T09:58:50;17.60;42.30
61398;DHT22;47267;48.130;-2.040;2023-02-28T10:06:50;17.60;42.50
61398;DHT22;47267;48.130;-2.040;2023-02-28T10:09:24;17.60;42.50
61398;DHT22;47267;48.130;-2.040;2023-02-28T10:11:52;17.60;42.60
61398;DHT22;47267;48.130;-2.040;2023-02-28T10:14:22;17.60;42.60
61398;DHT22;47267;48.130;-2.040;2023-02-28T10:16:58;17.60;42.60
61398;DHT22;47267;48.130;-2.040;2023-02-28T10:19:45;17.60;42.70
61398;DHT22;47267;48.130;-2.040;2023-02-28T10:22:25;17.60;42.70
61398;DHT22;47267;48.130;-2.040;2023-02-28T10:24:55;17.60;42.80
61398;DHT22;47267;48.130;-2.040;2023-02-28T10:27:30;17.70;42.90
61398;DHT22;47267;48.130;-2.040;2023-02-28T10:30:01;17.70;43.00
61398;DHT22;47267;48.130;-2.040;2023-02-28T10:32:29;17.70;43.00
61398;DHT22;47267;48.130;-2.040;2023-02-28T10:37:41;17.70;43.10
61398;DHT22;47267;48.130;-2.040;2023-02-28T10:40:36;17.70;43.10
61398;DHT22;47267;48.130;-2.040;2023-02-28T10:43:04;17.70;43.20
61398;DHT22;47267;48.130;-2.040;2023-02-28T10:45:34;17.70;43.30
61398;DHT22;47267;48.130;-2.040;2023-02-28T10:48:05;17.70;43.30
61398;DHT22;47267;48.130;-2.040;2023-02-28T10:50:36;17.70;43.30
61398;DHT22;47267;48.130;-2.040;2023-02-28T10:55:42;17.70;43.30
61398;DHT22;47267;48.130;-2.040;2023-02-28T10:58:21;17.80;43.40
61398;DHT22;47267;48.130;-2.040;2023-02-28T11:00:47;17.80;43.40
61398;DHT22;47267;48.130;-2.040;2023-02-28T11:03:32;17.80;43.40
61398;DHT22;47267;48.130;-2.040;2023-02-28T11:06:05;17.80;43.40
61398;DHT22;47267;48.130;-2.040;2023-02-28T11:08:32;17.80;43.50
61398;DHT22;47267;48.130;-2.040;2023-02-28T11:11:05;17.80;43.40
61398;DHT22;47267;48.130;-2.040;2023-02-28T11:13:35;17.80;43.50
61398;DHT22;47267;48.130;-2.040;2023-02-28T11:16:06;17.80;43.50
61398;DHT22;47267;48.130;-2.040;2023-02-28T11:18:50;17.90;43.60
61398;DHT22;47267;48.130;-2.040;2023-02-28T11:21:27;17.90;43.60
61398;DHT22;47267;48.130;-2.040;2023-02-28T11:24:04;17.90;43.70
61398;DHT22;47267;48.130;-2.040;2023-02-28T11:26:43;17.90;43.60
61398;DHT22;47267;48.130;-2.040;2023-02-28T11:29:21;17.90;43.60
61398;DHT22;47267;48.130;-2.040;2023-02-28T11:32:21;17.90;43.70
61398;DHT22;47267;48.130;-2.040;2023-02-28T11:37:38;17.90;43.60
61398;DHT22;47267;48.130;-2.040;2023-02-28T11:40:28;17.90;43.70
61398;DHT22;47267;48.130;-2.040;2023-02-28T11:45:45;17.90;43.70
61398;DHT22;47267;48.130;-2.040;2023-02-28T11:51:08;18.00;44.30
61398;DHT22;47267;48.130;-2.040;2023-02-28T11:54:08;18.00;43.80
61398;DHT22;47267;48.130;-2.040;2023-02-28T11:59:33;18.00;43.70
61398;DHT22;47267;48.130;-2.040;2023-02-28T12:07:34;18.00;43.70
61398;DHT22;47267;48.130;-2.040;2023-02-28T12:20:37;18.10;43.80
61398;DHT22;47267;48.130;-2.040;2023-02-28T12:23:25;18.10;43.80
61398;DHT22;47267;48.130;-2.040;2023-02-28T12:29:12;18.20;43.80
61398;DHT22;47267;48.130;-2.040;2023-02-28T12:31:45;18.10;43.70
61398;DHT22;47267;48.130;-2.040;2023-02-28T12:34:18;18.20;43.70
61398;DHT22;47267;48.130;-2.040;2023-02-28T12:36:47;18.20;44.30
61398;DHT22;47267;48.130;-2.040;2023-02-28T12:39:31;18.20;43.70
61398;DHT22;47267;48.130;-2.040;2023-02-28T12:44:56;18.20;43.70
61398;DHT22;47267;48.130;-2.040;2023-02-28T12:47:23;18.20;43.70
61398;DHT22;47267;48.130;-2.040;2023-02-28T12:49:54;18.20;43.70
61398;DHT22;47267;48.130;-2.040;2023-02-28T12:55:48;18.30;43.70
61398;DHT22;47267;48.130;-2.040;2023-02-28T12:58:43;18.30;43.60
61398;DHT22;47267;48.130;-2.040;2023-02-28T13:09:27;18.30;43.60
61398;DHT22;47267;48.130;-2.040;2023-02-28T13:11:55;18.30;43.60
61398;DHT22;47267;48.130;-2.040;2023-02-28T13:19:58;18.40;43.70
61398;DHT22;47267;48.130;-2.040;2023-02-28T13:22:42;18.40;43.70
61398;DHT22;47267;48.130;-2.040;2023-02-28T13:27:54;18.40;43.60
61398;DHT22;47267;48.130;-2.040;2023-02-28T13:33:26;18.40;43.60
61398;DHT22;47267;48.130;-2.040;2023-02-28T13:38:47;18.50;43.60
61398;DHT22;47267;48.130;-2.040;2023-02-28T14:08:59;18.50;43.30
61398;DHT22;47267;48.130;-2.040;2023-02-28T14:11:38;18.60;43.30
61398;DHT22;47267;48.130;-2.040;2023-02-28T14:14:05;18.60;43.30
61398;DHT22;47267;48.130;-2.040;2023-02-28T14:16:45;18.50;43.20
61398;DHT22;47267;48.130;-2.040;2023-02-28T14:19:35;18.60;43.20
61398;DHT22;47267;48.130;-2.040;2023-02-28T14:22:19;18.60;43.20
61398;DHT22;47267;48.130;-2.040;2023-02-28T14:25:10;18.60;43.20
61398;DHT22;47267;48.130;-2.040;2023-02-28T14:33:16;18.60;43.10
61398;DHT22;47267;48.130;-2.040;2023-02-28T14:36:25;18.60;43.00
61398;DHT22;47267;48.130;-2.040;2023-02-28T14:38:55;18.60;43.00
61398;DHT22;47267;48.130;-2.040;2023-02-28T14:41:30;18.60;42.90
61398;DHT22;47267;48.130;-2.040;2023-02-28T14:43:57;18.60;42.90
61398;DHT22;47267;48.130;-2.040;2023-02-28T14:46:35;18.60;42.90
61398;DHT22;47267;48.130;-2.040;2023-02-28T14:49:04;18.60;42.90
61398;DHT22;47267;48.130;-2.040;2023-02-28T14:51:30;18.60;42.90
61398;DHT22;47267;48.130;-2.040;2023-02-28T14:53:58;18.60;42.80
61398;DHT22;47267;48.130;-2.040;2023-02-28T14:56:37;18.60;42.80
61398;DHT22;47267;48.130;-2.040;2023-02-28T14:59:05;18.60;42.80
61398;DHT22;47267;48.130;-2.040;2023-02-28T15:01:31;18.60;42.80
61398;DHT22;47267;48.130;-2.040;2023-02-28T15:04:05;18.60;42.70
61398;DHT22;47267;48.130;-2.040;2023-02-28T15:06:32;18.60;42.70
61398;DHT22;47267;48.130;-2.040;2023-02-28T15:09:15;18.60;42.70
61398;DHT22;47267;48.130;-2.040;2023-02-28T15:11:44;18.60;42.70
61398;DHT22;47267;48.130;-2.040;2023-02-28T15:14:17;18.60;42.70
61398;DHT22;47267;48.130;-2.040;2023-02-28T15:16:45;18.60;42.60
61398;DHT22;47267;48.130;-2.040;2023-02-28T15:19:25;18.60;42.60
61398;DHT22;47267;48.130;-2.040;2023-02-28T15:22:00;18.60;42.60
61398;DHT22;47267;48.130;-2.040;2023-02-28T15:24:46;18.60;42.60
61398;DHT22;47267;48.130;-2.040;2023-02-28T15:29:48;18.60;42.60
61398;DHT22;47267;48.130;-2.040;2023-02-28T15:32:37;18.60;42.60
61398;DHT22;47267;48.130;-2.040;2023-02-28T15:35:28;18.60;42.50
61398;DHT22;47267;48.130;-2.040;2023-02-28T15:37:55;18.60;42.50
61398;DHT22;47267;48.130;-2.040;2023-02-28T15:40:29;18.60;42.50
61398;DHT22;47267;48.130;-2.040;2023-02-28T15:42:59;18.60;42.50
61398;DHT22;47267;48.130;-2.040;2023-02-28T15:45:34;18.60;43.10
61398;DHT22;47267;48.130;-2.040;2023-02-28T15:48:04;18.60;42.40
61398;DHT22;47267;48.130;-2.040;2023-02-28T15:50:31;18.60;42.40
61398;DHT22;47267;48.130;-2.040;2023-02-28T15:52:57;18.60;42.40
61398;DHT22;47267;48.130;-2.040;2023-02-28T15:55:26;18.60;42.50
61398;DHT22;47267;48.130;-2.040;2023-02-28T15:58:00;18.60;42.50
61398;DHT22;47267;48.130;-2.040;2023-02-28T16:00:28;18.60;42.50
61398;DHT22;47267;48.130;-2.040;2023-02-28T16:02:54;18.60;42.50
61398;DHT22;47267;48.130;-2.040;2023-02-28T16:05:26;18.60;42.50
61398;DHT22;47267;48.130;-2.040;2023-02-28T16:08:11;18.70;42.60
61398;DHT22;47267;48.130;-2.040;2023-02-28T16:10:38;18.70;42.50
61398;DHT22;47267;48.130;-2.040;2023-02-28T16:13:04;18.70;42.50
61398;DHT22;47267;48.130;-2.040;2023-02-28T16:15:35;18.70;42.50
61398;DHT22;47267;48.130;-2.040;2023-02-28T16:18:10;18.70;42.50
61398;DHT22;47267;48.130;-2.040;2023-02-28T16:20:36;18.70;42.50
61398;DHT22;47267;48.130;-2.040;2023-02-28T16:23:02;18.70;42.50
61398;DHT22;47267;48.130;-2.040;2023-02-28T16:25:39;18.70;42.50
61398;DHT22;47267;48.130;-2.040;2023-02-28T16:28:19;18.70;42.60
61398;DHT22;47267;48.130;-2.040;2023-02-28T16:30:46;18.70;42.50
61398;DHT22;47267;48.130;-2.040;2023-02-28T16:33:12;18.70;42.50
61398;DHT22;47267;48.130;-2.040;2023-02-28T16:35:37;18.70;42.50
61398;DHT22;47267;48.130;-2.040;2023-02-28T16:38:03;18.70;43.10
61398;DHT22;47267;48.130;-2.040;2023-02-28T16:40:34;18.70;42.50
61398;DHT22;47267;48.130;-2.040;2023-02-28T16:43:00;18.70;42.50
61398;DHT22;47267;48.130;-2.040;2023-02-28T16:45:27;18.70;42.50
61398;DHT22;47267;48.130;-2.040;2023-02-28T16:47:54;18.70;42.50
61398;DHT22;47267;48.130;-2.040;2023-02-28T16:50:27;18.70;42.60
61398;DHT22;47267;48.130;-2.040;2023-02-28T16:52:53;18.70;42.50
61398;DHT22;47267;48.130;-2.040;2023-02-28T16:55:20;18.70;42.60
61398;DHT22;47267;48.130;-2.040;2023-02-28T16:57:51;18.70;42.50
61398;DHT22;47267;48.130;-2.040;2023-02-28T17:00:17;18.70;42.50
61398;DHT22;47267;48.130;-2.040;2023-02-28T17:02:43;18.70;42.50
61398;DHT22;47267;48.130;-2.040;2023-02-28T17:05:11;18.70;42.50
61398;DHT22;47267;48.130;-2.040;2023-02-28T17:07:37;18.70;42.50
61398;DHT22;47267;48.130;-2.040;2023-02-28T17:10:18;18.70;42.50
61398;DHT22;47267;48.130;-2.040;2023-02-28T17:12:48;18.70;42.50
61398;DHT22;47267;48.130;-2.040;2023-02-28T17:15:15;18.70;42.50
61398;DHT22;47267;48.130;-2.040;2023-02-28T17:17:43;18.70;42.50
61398;DHT22;47267;48.130;-2.040;2023-02-28T17:20:18;18.80;42.60
61398;DHT22;47267;48.130;-2.040;2023-02-28T17:22:44;18.80;42.60
61398;DHT22;47267;48.130;-2.040;2023-02-28T17:25:12;18.80;42.50
61398;DHT22;47267;48.130;-2.040;2023-02-28T17:27:39;18.80;42.60
61398;DHT22;47267;48.130;-2.040;2023-02-28T17:32:39;18.80;42.50
61398;DHT22;47267;48.130;-2.040;2023-02-28T17:35:05;18.80;42.50
61398;DHT22;47267;48.130;-2.040;2023-02-28T17:37:31;18.80;42.50
61398;DHT22;47267;48.130;-2.040;2023-02-28T17:39:57;18.80;42.60
61398;DHT22;47267;48.130;-2.040;2023-02-28T17:42:23;18.80;42.50
61398;DHT22;47267;48.130;-2.040;2023-02-28T17:44:49;18.80;42.50
61398;DHT22;47267;48.130;-2.040;2023-02-28T17:47:14;18.90;42.70
61398;DHT22;47267;48.130;-2.040;2023-02-28T17:49:40;18.90;42.50
61398;DHT22;47267;48.130;-2.040;2023-02-28T17:52:07;18.90;42.50
61398;DHT22;47267;48.130;-2.040;2023-02-28T17:54:33;18.90;42.50
61398;DHT22;47267;48.130;-2.040;2023-02-28T17:56:59;18.90;42.50